Rubin Power — 3FNG6 — position and weather

sailwx.info

Track history (hours):
 
Tides and Currents Weather Stations Pressure Air Temp Water Temp Dewpoint Dewpoint Depression Visibility Wind Speed Wind Dir Waves Ship Positions

Rubin Power

Last reported at 2014-Dec-24 17:27 UTC. Time now 2015-Jan-30 00:32 UTC.
Position S 28°45' E 032°42'.
Warning: this ship's position is 36 days out of date.

Length 218.7 m; beam 32.2 m.

Type: Cargo ship. MMSI: 356808000.

Date/timePositionNaut miles runAvg speedWind from/ knotsBaromVisibWave heightAir tempDewpointWater temp
2014-Dec-24 17:27S 28°45' E 032°42'7910.9
2014-Dec-24 10:17S 29°36' E 031°34'912.7
2014-Dec-24 09:33S 29°41' E 031°25'1413.7
2014-Dec-24 08:33S 29°49' E 031°12'5 5.2
2014-Dec-24 07:33S 29°53' E 031°08'2 2.2
2014-Dec-24 06:33S 29°55' E 031°08'4 3.8
2014-Dec-24 05:33S 29°59' E 031°07'8 7.7
2014-Dec-24 04:33S 30°06' E 031°06'3 2.6
2014-Dec-24 03:23S 30°09' E 031°05'1 0.9
2014-Dec-24 02:26S 30°10' E 031°04'1 0.8
2014-Dec-24 01:22S 30°11' E 031°04'1 0.9
2014-Dec-24 00:25S 30°11' E 031°03'6 0.7
2014-Dec-23 16:28S 30°17' E 031°02'  
Track history (hours):
 
Tides and Currents Weather Stations Pressure Air Temp Water Temp Dewpoint Dewpoint Depression Visibility Wind Speed Wind Dir Waves Ship Positions

Rubin Power

Last reported at 2014-Dec-24 17:27 UTC. Time now 2015-Jan-30 00:32 UTC.
Position S 28°45' E 032°42'.
Warning: this ship's position is 36 days out of date.

Length 218.7 m; beam 32.2 m.

Type: Cargo ship. MMSI: 356808000.

Date/timePositionNaut miles runAvg speedWind from/ knotsBaromVisibWave heightAir tempDewpointWater temp
2014-Dec-24 17:27S 28°45' E 032°42'7910.9
2014-Dec-24 10:17S 29°36' E 031°34'912.7
2014-Dec-24 09:33S 29°41' E 031°25'1413.7
2014-Dec-24 08:33S 29°49' E 031°12'5 5.2
2014-Dec-24 07:33S 29°53' E 031°08'2 2.2
2014-Dec-24 06:33S 29°55' E 031°08'4 3.8
2014-Dec-24 05:33S 29°59' E 031°07'8 7.7
2014-Dec-24 04:33S 30°06' E 031°06'3 2.6
2014-Dec-24 03:23S 30°09' E 031°05'1 0.9
2014-Dec-24 02:26S 30°10' E 031°04'1 0.8
2014-Dec-24 01:22S 30°11' E 031°04'1 0.9
2014-Dec-24 00:25S 30°11' E 031°03'6 0.7
2014-Dec-23 16:28S 30°17' E 031°02'  

Dump ship's entire track history